Meridian — EI6085 — position and weather

sailwx.info

Track history (hours):
 
Tides and Currents Weather Stations Pressure Air Temp Water Temp Dewpoint Dewpoint Depression Visibility Wind Speed Wind Dir Waves Ship Positions

Meridian

Last reported at 2014-Jul-29 11:24 UTC. Time now 2014-Jul-29 16:52 UTC.
Position N 54°38' W 008°27'.

Length 12 m.

Type: Fishing. MMSI: 250107450.

Date/timePositionNaut miles runAvg speedWind from/ knotsBaromVisibWave heightAir tempDewpointWater temp
2014-Jul-29 11:24N 54°38' W 008°27'0 0.0
2014-Jul-29 10:30N 54°38' W 008°27'0 0.0
2014-Jul-29 09:33N 54°38' W 008°27'0 0.0
2014-Jul-28 15:29N 54°38' W 008°27'8 7.7
2014-Jul-28 14:30N 54°37' W 008°40'1 0.3
2014-Jul-28 11:10N 54°37' W 008°41'5 8.1
2014-Jul-28 10:33N 54°35' W 008°33'1 0.6
2014-Jul-28 09:33N 54°35' W 008°32'1 0.5
2014-Jul-28 08:33N 54°35' W 008°31'3 2.7
2014-Jul-28 07:30N 54°37' W 008°27'2 0.1
2014-Jul-27 15:33N 54°38' W 008°27'3 3.3
2014-Jul-27 14:33N 54°37' W 008°32'1 1.4
2014-Jul-27 13:33N 54°36' W 008°34'0 0.2
2014-Jul-27 12:33N 54°36' W 008°34'1 1.4
2014-Jul-27 11:33N 54°36' W 008°33'1 0.7
2014-Jul-27 10:33N 54°35' W 008°31'0 0.4
2014-Jul-27 09:33N 54°35' W 008°32'1 0.8
2014-Jul-27 08:33N 54°36' W 008°31'3 3.4
2014-Jul-27 07:32N 54°38' W 008°27'0 0.0
2014-Jul-25 14:28N 54°38' W 008°27'0 0.0
2014-Jul-25 13:28N 54°38' W 008°27'0 0.0
2014-Jul-25 12:28N 54°38' W 008°27'0 0.0
2014-Jul-25 11:31N 54°38' W 008°27'0 0.0
2014-Jul-24 14:34N 54°38' W 008°27'1 0.7
2014-Jul-24 13:32N 54°38' W 008°26'1 0.5
2014-Jul-24 12:31N 54°38' W 008°27'2 2.1
2014-Jul-24 11:28N 54°37' W 008°23'3 3.2
2014-Jul-24 10:33N 54°36' W 008°28'2 2.5
2014-Jul-24 09:34N 54°38' W 008°26'0 0.3
2014-Jul-24 08:28N 54°38' W 008°27'2 0.0
2014-Jul-22 09:33N 54°36' W 008°28'2 1.7
2014-Jul-22 08:26N 54°38' W 008°27'0 0.0
2014-Jul-21 16:12N 54°38' W 008°27'3 3.7
2014-Jul-21 15:30N 54°35' W 008°27'6 6.2
2014-Jul-21 14:29N 54°36' W 008°38'3 3.3
2014-Jul-21 13:28N 54°36' W 008°32'4 4.0
2014-Jul-21 12:30N 54°38' W 008°27'0 0.2
2014-Jul-21 11:33N 54°38' W 008°27'0 0.0
2014-Jul-21 10:33N 54°38' W 008°27'0 0.0
2014-Jul-21 09:33N 54°38' W 008°27'0 0.0
2014-Jul-20 15:30N 54°38' W 008°26'10 9.8
2014-Jul-20 14:28N 54°37' W 008°43'2 0.3
2014-Jul-20 09:33N 54°37' W 008°41'8 7.2
2014-Jul-20 08:27N 54°37' W 008°27'1 1.6
2014-Jul-20 07:32N 54°38' W 008°27'0 0.0
2014-Jul-19 16:13N 54°38' W 008°27'2 3.1
2014-Jul-19 15:32N 54°36' W 008°29'10 9.4
2014-Jul-19 14:31N 54°36' W 008°45'  
Track history (hours):
 
Tides and Currents Weather Stations Pressure Air Temp Water Temp Dewpoint Dewpoint Depression Visibility Wind Speed Wind Dir Waves Ship Positions

Meridian

Last reported at 2014-Jul-29 11:24 UTC. Time now 2014-Jul-29 16:52 UTC.
Position N 54°38' W 008°27'.

Length 12 m.

Type: Fishing. MMSI: 250107450.

Date/timePositionNaut miles runAvg speedWind from/ knotsBaromVisibWave heightAir tempDewpointWater temp
2014-Jul-29 11:24N 54°38' W 008°27'0 0.0
2014-Jul-29 10:30N 54°38' W 008°27'0 0.0
2014-Jul-29 09:33N 54°38' W 008°27'0 0.0
2014-Jul-28 15:29N 54°38' W 008°27'8 7.7
2014-Jul-28 14:30N 54°37' W 008°40'1 0.3
2014-Jul-28 11:10N 54°37' W 008°41'5 8.1
2014-Jul-28 10:33N 54°35' W 008°33'1 0.6
2014-Jul-28 09:33N 54°35' W 008°32'1 0.5
2014-Jul-28 08:33N 54°35' W 008°31'3 2.7
2014-Jul-28 07:30N 54°37' W 008°27'2 0.1
2014-Jul-27 15:33N 54°38' W 008°27'3 3.3
2014-Jul-27 14:33N 54°37' W 008°32'1 1.4
2014-Jul-27 13:33N 54°36' W 008°34'0 0.2
2014-Jul-27 12:33N 54°36' W 008°34'1 1.4
2014-Jul-27 11:33N 54°36' W 008°33'1 0.7
2014-Jul-27 10:33N 54°35' W 008°31'0 0.4
2014-Jul-27 09:33N 54°35' W 008°32'1 0.8
2014-Jul-27 08:33N 54°36' W 008°31'3 3.4
2014-Jul-27 07:32N 54°38' W 008°27'0 0.0
2014-Jul-25 14:28N 54°38' W 008°27'0 0.0
2014-Jul-25 13:28N 54°38' W 008°27'0 0.0
2014-Jul-25 12:28N 54°38' W 008°27'0 0.0
2014-Jul-25 11:31N 54°38' W 008°27'0 0.0
2014-Jul-24 14:34N 54°38' W 008°27'1 0.7
2014-Jul-24 13:32N 54°38' W 008°26'1 0.5
2014-Jul-24 12:31N 54°38' W 008°27'2 2.1
2014-Jul-24 11:28N 54°37' W 008°23'3 3.2
2014-Jul-24 10:33N 54°36' W 008°28'2 2.5
2014-Jul-24 09:34N 54°38' W 008°26'0 0.3
2014-Jul-24 08:28N 54°38' W 008°27'2 0.0
2014-Jul-22 09:33N 54°36' W 008°28'2 1.7
2014-Jul-22 08:26N 54°38' W 008°27'0 0.0
2014-Jul-21 16:12N 54°38' W 008°27'3 3.7
2014-Jul-21 15:30N 54°35' W 008°27'6 6.2
2014-Jul-21 14:29N 54°36' W 008°38'3 3.3
2014-Jul-21 13:28N 54°36' W 008°32'4 4.0
2014-Jul-21 12:30N 54°38' W 008°27'0 0.2
2014-Jul-21 11:33N 54°38' W 008°27'0 0.0
2014-Jul-21 10:33N 54°38' W 008°27'0 0.0
2014-Jul-21 09:33N 54°38' W 008°27'0 0.0
2014-Jul-20 15:30N 54°38' W 008°26'10 9.8
2014-Jul-20 14:28N 54°37' W 008°43'2 0.3
2014-Jul-20 09:33N 54°37' W 008°41'8 7.2
2014-Jul-20 08:27N 54°37' W 008°27'1 1.6
2014-Jul-20 07:32N 54°38' W 008°27'0 0.0
2014-Jul-19 16:13N 54°38' W 008°27'2 3.1
2014-Jul-19 15:32N 54°36' W 008°29'10 9.4
2014-Jul-19 14:31N 54°36' W 008°45'  

Dump ship's entire track history